createdAt,value
2023-04-27T00:00:48.815Z,95.20
2023-04-27T00:03:16.052Z,95.40
2023-04-27T00:05:44.221Z,95.70
2023-04-27T00:08:11.229Z,95.90
2023-04-27T00:10:37.943Z,95.80
2023-04-27T00:13:04.782Z,95.80
2023-04-27T00:15:31.639Z,95.80
2023-04-27T00:17:58.481Z,95.80
2023-04-27T00:20:25.467Z,95.90
2023-04-27T00:22:52.325Z,96.00
2023-04-27T00:25:19.117Z,96.30
2023-04-27T00:27:45.943Z,96.20
2023-04-27T00:30:12.798Z,96.20
2023-04-27T00:32:39.689Z,96.20
2023-04-27T00:35:07.126Z,96.30
2023-04-27T00:37:33.967Z,96.40
2023-04-27T00:40:01.313Z,96.30
2023-04-27T00:42:28.068Z,96.40
2023-04-27T00:44:57.954Z,96.40
2023-04-27T00:47:25.127Z,96.50
2023-04-27T00:49:52.157Z,96.60
2023-04-27T00:52:19.372Z,96.70
2023-04-27T00:54:48.485Z,96.60
2023-04-27T00:57:15.242Z,96.70
2023-04-27T00:59:41.997Z,97.00
2023-04-27T01:02:10.723Z,97.00
2023-04-27T01:04:37.771Z,97.00
2023-04-27T01:07:04.672Z,97.10
2023-04-27T01:09:31.348Z,96.80
2023-04-27T01:11:58.535Z,96.90
2023-04-27T01:14:25.324Z,97.00
2023-04-27T01:16:52.407Z,97.10
2023-04-27T01:19:19.182Z,97.10
2023-04-27T01:21:46.665Z,97.20
2023-04-27T01:24:13.479Z,97.10
2023-04-27T01:26:40.241Z,97.10
2023-04-27T01:29:07.078Z,97.10
2023-04-27T01:31:33.927Z,97.10
2023-04-27T01:34:00.723Z,97.10
2023-04-27T01:36:27.836Z,97.00
2023-04-27T01:38:54.650Z,97.00
2023-04-27T01:41:21.448Z,97.00
2023-04-27T01:43:48.163Z,97.20
2023-04-27T01:46:15.952Z,97.30
2023-04-27T01:48:42.900Z,97.30
2023-04-27T01:51:09.783Z,97.20
2023-04-27T01:53:36.560Z,97.30
2023-04-27T01:56:03.806Z,97.40
2023-04-27T01:58:30.619Z,97.40
2023-04-27T02:00:57.332Z,97.50
2023-04-27T02:03:24.190Z,97.30
2023-04-27T02:05:51.112Z,97.20
2023-04-27T02:08:18.069Z,97.30
2023-04-27T02:10:44.951Z,97.40
2023-04-27T02:13:11.858Z,97.40
2023-04-27T02:15:38.733Z,97.30
2023-04-27T02:18:05.760Z,97.40
2023-04-27T02:20:33.554Z,97.40
2023-04-27T02:23:01.124Z,97.60
2023-04-27T02:25:28.303Z,97.50
2023-04-27T02:27:55.661Z,97.60
2023-04-27T02:30:23.189Z,97.60
2023-04-27T02:32:50.485Z,97.70
2023-04-27T02:35:17.265Z,97.80
2023-04-27T02:37:44.111Z,97.80
2023-04-27T02:40:11.409Z,97.90
2023-04-27T02:42:39.095Z,98.00
2023-04-27T02:45:07.640Z,98.40
2023-04-27T02:47:35.475Z,98.30
2023-04-27T02:50:02.750Z,98.30
2023-04-27T02:52:29.579Z,98.40
2023-04-27T02:54:56.418Z,98.60
2023-04-27T02:57:23.271Z,98.80
2023-04-27T02:59:50.055Z,98.70
2023-04-27T03:02:16.861Z,98.80
2023-04-27T03:04:43.825Z,98.80
2023-04-27T03:07:12.025Z,98.90
2023-04-27T03:09:38.917Z,98.90
2023-04-27T03:12:05.932Z,98.80
2023-04-27T03:14:32.813Z,98.80
2023-04-27T03:17:00.647Z,98.90
2023-04-27T03:19:27.606Z,99.00
2023-04-27T03:21:54.450Z,99.10
2023-04-27T03:24:21.909Z,99.20
2023-04-27T03:26:48.741Z,99.20
2023-04-27T03:29:15.845Z,99.20
2023-04-27T03:31:42.837Z,99.30
2023-04-27T03:34:09.622Z,99.50
2023-04-27T03:36:36.593Z,99.50
2023-04-27T03:39:03.727Z,99.50
2023-04-27T03:41:30.495Z,99.60
2023-04-27T03:43:57.291Z,99.70
2023-04-27T03:46:24.153Z,99.70
2023-04-27T03:48:50.970Z,99.70
2023-04-27T03:51:18.401Z,99.90
2023-04-27T03:53:45.191Z,99.90
2023-04-27T03:56:12.099Z,99.90
2023-04-27T03:58:39.056Z,99.90
2023-04-27T04:01:06.441Z,99.80
2023-04-27T04:03:33.424Z,99.80
2023-04-27T04:06:00.200Z,99.90
2023-04-27T04:08:26.894Z,99.90
2023-04-27T04:10:53.688Z,99.90
2023-04-27T04:13:20.664Z,99.90
2023-04-27T04:15:47.431Z,99.90
2023-04-27T04:18:14.251Z,99.90
2023-04-27T04:20:41.777Z,99.90
2023-04-27T04:23:08.595Z,99.90
2023-04-27T04:25:35.352Z,99.90
2023-04-27T04:28:02.053Z,99.90
2023-04-27T04:30:28.903Z,99.90
2023-04-27T04:32:55.760Z,99.90
2023-04-27T04:35:22.627Z,99.90
2023-04-27T04:37:49.470Z,99.90
2023-04-27T04:40:16.677Z,99.90
2023-04-27T04:42:43.417Z,99.90
2023-04-27T04:45:10.815Z,99.90
2023-04-27T04:47:37.631Z,99.90
2023-04-27T04:50:04.717Z,99.90
2023-04-27T04:52:31.497Z,99.90
2023-04-27T04:54:58.205Z,99.90
2023-04-27T04:57:24.947Z,99.90
2023-04-27T04:59:51.637Z,99.90
2023-04-27T05:02:18.555Z,99.90
2023-04-27T05:04:45.787Z,99.90
2023-04-27T05:07:14.884Z,99.90
2023-04-27T05:09:42.405Z,99.90
2023-04-27T05:12:09.493Z,99.40
2023-04-27T05:14:36.271Z,99.20
2023-04-27T05:17:03.160Z,99.00
2023-04-27T05:19:31.369Z,98.80
2023-04-27T05:22:01.202Z,98.70
2023-04-27T05:24:28.226Z,98.90
2023-04-27T05:26:55.161Z,98.90
2023-04-27T05:29:22.582Z,98.50
2023-04-27T05:31:49.625Z,98.40
2023-04-27T05:34:16.912Z,98.10
2023-04-27T05:36:43.888Z,98.10
2023-04-27T05:39:10.704Z,98.00
2023-04-27T05:41:37.464Z,97.90
2023-04-27T05:44:04.271Z,97.80
2023-04-27T05:46:31.234Z,97.60
2023-04-27T05:48:58.027Z,97.50
2023-04-27T05:51:25.012Z,97.10
2023-04-27T05:53:55.235Z,97.40
2023-04-27T05:56:22.328Z,97.40
2023-04-27T05:58:49.135Z,97.40
2023-04-27T06:01:16.154Z,97.20
2023-04-27T06:03:43.086Z,97.00
2023-04-27T06:06:10.210Z,97.00
2023-04-27T06:08:39.395Z,97.00
2023-04-27T06:11:06.656Z,96.90
2023-04-27T06:13:33.783Z,97.00
2023-04-27T06:16:01.227Z,97.00
2023-04-27T06:18:28.069Z,97.00
2023-04-27T06:21:02.234Z,97.20
2023-04-27T06:23:29.605Z,97.30
2023-04-27T06:25:56.433Z,97.10
2023-04-27T06:28:23.408Z,97.20
2023-04-27T06:30:50.156Z,97.20
2023-04-27T06:33:17.012Z,97.30
2023-04-27T06:35:47.046Z,97.40
2023-04-27T06:38:14.180Z,97.30
2023-04-27T06:40:40.970Z,97.20
2023-04-27T06:43:07.758Z,97.20
2023-04-27T06:45:34.482Z,97.40
2023-04-27T06:48:01.454Z,97.40
2023-04-27T06:50:29.235Z,97.50
2023-04-27T06:52:56.028Z,97.30
2023-04-27T06:55:22.791Z,97.30
2023-04-27T06:57:49.508Z,97.30
2023-04-27T07:00:16.648Z,97.10
2023-04-27T07:02:43.849Z,96.90
2023-04-27T07:05:10.893Z,97.00
2023-04-27T07:07:37.778Z,97.00
2023-04-27T07:10:04.864Z,96.90
2023-04-27T07:12:31.677Z,96.90
2023-04-27T07:14:58.444Z,96.90
2023-04-27T07:17:25.304Z,96.80
2023-04-27T07:19:52.103Z,96.80
2023-04-27T07:22:20.017Z,97.30
2023-04-27T07:24:46.769Z,96.90
2023-04-27T07:27:14.992Z,97.00
2023-04-27T07:29:42.401Z,96.90
2023-04-27T07:32:09.406Z,96.90
2023-04-27T07:34:49.000Z,96.90
2023-04-27T07:37:19.810Z,96.70
2023-04-27T07:39:47.350Z,96.90
2023-04-27T07:42:15.303Z,96.90
2023-04-27T07:44:42.645Z,96.50
2023-04-27T07:47:10.111Z,96.70
2023-04-27T07:49:37.549Z,97.00
2023-04-27T07:52:04.786Z,97.30
2023-04-27T07:54:31.631Z,96.80
2023-04-27T07:56:58.578Z,96.60
2023-04-27T07:59:28.504Z,96.20
2023-04-27T08:01:59.435Z,96.20
2023-04-27T08:04:34.430Z,96.10
2023-04-27T08:07:01.670Z,95.90
2023-04-27T08:09:29.094Z,95.70
2023-04-27T08:11:57.355Z,95.70
2023-04-27T08:14:24.123Z,95.30
2023-04-27T08:16:52.176Z,95.60
2023-04-27T08:19:19.046Z,95.30
2023-04-27T08:21:45.971Z,95.40
2023-04-27T08:24:12.773Z,95.50
2023-04-27T08:26:41.449Z,95.20
2023-04-27T08:29:19.241Z,94.90
2023-04-27T08:31:47.521Z,94.80
2023-04-27T08:34:14.368Z,94.10
2023-04-27T08:36:41.227Z,94.20
2023-04-27T08:39:09.003Z,94.10
2023-04-27T08:41:35.730Z,93.80
2023-04-27T08:44:02.538Z,93.20
2023-04-27T08:46:29.933Z,92.10
2023-04-27T08:48:56.978Z,91.80
2023-04-27T08:51:25.553Z,90.40
2023-04-27T08:53:54.338Z,90.60
2023-04-27T08:56:25.165Z,90.20
2023-04-27T08:58:52.465Z,90.10
2023-04-27T09:01:19.918Z,90.90
2023-04-27T09:03:47.684Z,90.70
2023-04-27T09:06:15.353Z,91.20
2023-04-27T09:08:43.082Z,91.20
2023-04-27T09:11:09.803Z,91.10
2023-04-27T09:13:41.982Z,90.60
2023-04-27T09:16:09.192Z,90.70
2023-04-27T09:18:37.982Z,90.30
2023-04-27T09:21:05.187Z,89.40
2023-04-27T09:23:33.628Z,88.70
2023-04-27T09:26:08.343Z,88.00
2023-04-27T09:28:40.473Z,88.50
2023-04-27T09:31:09.485Z,86.70
2023-04-27T09:33:36.684Z,87.40
2023-04-27T09:36:07.163Z,87.00
2023-04-27T09:38:34.387Z,86.70
2023-04-27T09:41:01.549Z,85.00
2023-04-27T09:43:29.942Z,86.10
2023-04-27T09:45:57.653Z,84.70
2023-04-27T09:48:25.707Z,84.10
2023-04-27T09:50:53.143Z,83.20
2023-04-27T09:53:24.723Z,83.20
2023-04-27T09:56:17.324Z,84.00
2023-04-27T09:58:53.063Z,84.70
2023-04-27T10:01:19.790Z,86.40
2023-04-27T10:03:59.121Z,88.00
2023-04-27T10:06:52.139Z,86.30
2023-04-27T10:09:25.418Z,86.80
2023-04-27T10:11:53.880Z,86.40
2023-04-27T10:14:22.754Z,85.30
2023-04-27T10:16:53.557Z,86.90
2023-04-27T10:19:24.624Z,84.30
2023-04-27T10:22:17.140Z,86.10
2023-04-27T10:24:49.538Z,85.10
2023-04-27T10:27:20.065Z,84.90
2023-04-27T10:29:48.039Z,86.20
2023-04-27T10:32:24.073Z,85.20
2023-04-27T10:35:08.100Z,84.80
2023-04-27T10:37:42.172Z,85.10
2023-04-27T10:40:10.674Z,84.40
2023-04-27T10:42:37.511Z,84.50
2023-04-27T10:45:04.570Z,82.80
2023-04-27T10:47:45.462Z,82.80
2023-04-27T10:50:13.770Z,84.90
2023-04-27T10:52:46.913Z,83.40
2023-04-27T10:55:20.096Z,82.60
2023-04-27T10:57:51.900Z,83.20
2023-04-27T11:00:37.676Z,81.20
2023-04-27T11:03:11.629Z,80.80
2023-04-27T11:05:38.760Z,80.90
2023-04-27T11:08:10.505Z,79.50
2023-04-27T11:10:49.874Z,79.60
2023-04-27T11:13:17.700Z,79.10
2023-04-27T11:15:49.018Z,79.40
2023-04-27T11:18:17.718Z,78.80
2023-04-27T11:20:50.561Z,79.30
2023-04-27T11:23:28.947Z,77.20
2023-04-27T11:25:56.869Z,78.30
2023-04-27T11:28:24.437Z,77.50
2023-04-27T11:30:58.621Z,77.30
2023-04-27T11:33:26.423Z,75.30
2023-04-27T11:35:53.468Z,75.70
2023-04-27T11:38:21.860Z,76.80
2023-04-27T11:41:06.295Z,77.40
2023-04-27T11:43:33.620Z,76.30
2023-04-27T11:46:11.108Z,76.30
2023-04-27T11:48:38.768Z,72.50
2023-04-27T11:51:06.989Z,73.50
2023-04-27T11:53:38.327Z,72.80
2023-04-27T11:56:10.781Z,73.60
2023-04-27T11:58:39.267Z,75.20
2023-04-27T12:01:07.515Z,75.00
2023-04-27T12:03:35.380Z,73.90
2023-04-27T12:08:32.273Z,71.60
2023-04-27T12:10:59.164Z,73.10
2023-04-27T12:13:25.921Z,73.30
2023-04-27T12:15:52.683Z,72.90
2023-04-27T12:18:19.411Z,72.50
2023-04-27T12:20:46.518Z,72.30
2023-04-27T12:23:13.333Z,71.60
2023-04-27T12:25:41.206Z,68.80
2023-04-27T12:28:08.097Z,70.00
2023-04-27T12:30:35.115Z,71.10
2023-04-27T12:33:02.364Z,70.40
2023-04-27T12:35:31.929Z,70.00
2023-04-27T12:37:58.922Z,71.80
2023-04-27T12:40:25.951Z,70.40
2023-04-27T12:42:53.249Z,70.60
2023-04-27T12:45:20.092Z,70.20
2023-04-27T12:48:01.837Z,68.00
2023-04-27T12:50:31.654Z,68.20
2023-04-27T12:52:58.462Z,66.50
2023-04-27T12:57:58.378Z,66.30
2023-04-27T13:00:25.586Z,66.50
2023-04-27T13:02:52.892Z,67.10
2023-04-27T13:05:21.031Z,67.80
2023-04-27T13:07:48.254Z,68.40
2023-04-27T13:10:15.151Z,65.30
2023-04-27T13:12:42.080Z,64.80
2023-04-27T13:15:10.110Z,65.60
2023-04-27T13:17:37.085Z,64.60
2023-04-27T13:20:04.247Z,66.10
2023-04-27T13:22:31.001Z,65.00
2023-04-27T13:24:58.124Z,65.80
2023-04-27T13:27:28.317Z,66.80
2023-04-27T13:29:55.148Z,68.30
2023-04-27T13:32:22.556Z,67.10
2023-04-27T13:34:49.525Z,66.30
2023-04-27T13:37:16.675Z,65.80
2023-04-27T13:39:43.364Z,66.00
2023-04-27T13:42:10.233Z,65.00
2023-04-27T13:44:37.017Z,64.70
2023-04-27T13:47:03.968Z,66.20
2023-04-27T13:49:30.936Z,66.10
2023-04-27T13:51:58.690Z,66.40
2023-04-27T13:54:25.851Z,63.80
2023-04-27T13:56:52.618Z,64.40
2023-04-27T13:59:19.318Z,63.80
2023-04-27T14:01:46.156Z,63.70
2023-04-27T14:04:13.154Z,62.80
2023-04-27T14:06:39.969Z,62.90
2023-04-27T14:09:07.021Z,64.00
2023-04-27T14:11:42.069Z,64.30
2023-04-27T14:14:16.012Z,63.40
2023-04-27T14:16:43.312Z,64.10
2023-04-27T14:19:10.551Z,63.70
2023-04-27T14:21:37.290Z,61.60
2023-04-27T14:24:04.154Z,63.40
2023-04-27T14:26:31.008Z,63.30
2023-04-27T14:28:58.742Z,62.90
2023-04-27T14:31:26.509Z,63.20
2023-04-27T14:33:53.421Z,63.30
2023-04-27T14:36:20.349Z,63.50
2023-04-27T14:38:47.421Z,64.40
2023-04-27T14:41:14.174Z,64.90
2023-04-27T14:43:41.821Z,65.10
2023-04-27T14:46:19.595Z,65.30
2023-04-27T14:48:47.917Z,65.40
2023-04-27T14:51:15.934Z,66.70
2023-04-27T14:53:44.062Z,66.60
2023-04-27T14:56:11.229Z,66.60
2023-04-27T14:58:38.626Z,66.10
2023-04-27T15:01:06.100Z,65.80
2023-04-27T15:03:33.320Z,65.60
2023-04-27T15:06:01.238Z,66.00
2023-04-27T15:08:28.368Z,65.50
2023-04-27T15:10:57.925Z,66.10
2023-04-27T15:13:24.820Z,66.40
2023-04-27T15:15:56.147Z,66.30
2023-04-27T15:18:23.840Z,66.50
2023-04-27T15:20:56.977Z,65.90
2023-04-27T15:23:24.767Z,66.40
2023-04-27T15:25:54.846Z,66.90
2023-04-27T15:28:21.736Z,67.50
2023-04-27T15:30:49.052Z,67.00
2023-04-27T15:33:16.570Z,66.70
2023-04-27T15:35:43.363Z,67.00
2023-04-27T15:38:12.622Z,67.10
2023-04-27T15:40:39.897Z,67.70
2023-04-27T15:43:06.926Z,67.80
2023-04-27T15:45:33.772Z,68.30
2023-04-27T15:48:00.810Z,67.70
2023-04-27T15:50:27.563Z,68.30
2023-04-27T15:52:54.268Z,68.30
2023-04-27T15:55:22.900Z,68.70
2023-04-27T15:57:50.404Z,69.90
2023-04-27T16:00:18.910Z,70.30
2023-04-27T16:02:46.403Z,70.50
2023-04-27T16:05:13.908Z,70.70
2023-04-27T16:07:43.386Z,70.70
2023-04-27T16:10:11.255Z,70.30
2023-04-27T16:12:38.311Z,70.60
2023-04-27T16:15:06.090Z,70.80
2023-04-27T16:17:37.646Z,70.40
2023-04-27T16:20:08.075Z,70.60
2023-04-27T16:22:35.722Z,69.30
2023-04-27T16:25:03.860Z,69.70
2023-04-27T16:27:30.920Z,69.40
2023-04-27T16:29:57.757Z,70.10
2023-04-27T16:32:24.742Z,70.10
2023-04-27T16:34:51.569Z,69.80
2023-04-27T16:37:18.310Z,70.10
2023-04-27T16:39:45.344Z,70.20
2023-04-27T16:42:16.264Z,69.80
2023-04-27T16:44:43.043Z,69.40
2023-04-27T16:47:09.749Z,69.30
2023-04-27T16:49:37.700Z,69.30
2023-04-27T16:52:04.801Z,68.90
2023-04-27T16:54:31.679Z,68.90
2023-04-27T16:56:58.454Z,69.10
2023-04-27T16:59:25.207Z,70.30
2023-04-27T17:01:52.205Z,70.20
2023-04-27T17:04:19.238Z,70.20
2023-04-27T17:06:47.942Z,70.50
2023-04-27T17:09:15.200Z,70.30
2023-04-27T17:11:42.418Z,70.10
2023-04-27T17:14:09.158Z,85.10
2023-04-27T17:16:35.933Z,80.60
2023-04-27T17:19:02.625Z,76.30
2023-04-27T17:21:29.397Z,75.00
2023-04-27T17:23:56.231Z,74.10
2023-04-27T17:26:23.056Z,73.70
2023-04-27T17:28:49.890Z,73.50
2023-04-27T17:31:19.635Z,73.50
2023-04-27T17:33:46.462Z,73.30
2023-04-27T17:36:14.883Z,73.40
2023-04-27T17:38:41.794Z,73.30
2023-04-27T17:41:08.543Z,73.70
2023-04-27T17:43:37.528Z,74.60
2023-04-27T17:46:11.083Z,74.90
2023-04-27T17:48:37.984Z,75.10
2023-04-27T17:51:04.822Z,76.40
2023-04-27T17:53:31.638Z,77.30
2023-04-27T17:55:58.475Z,77.30
2023-04-27T17:58:25.637Z,76.90
2023-04-27T18:00:52.610Z,77.30
2023-04-27T18:03:22.597Z,77.10
2023-04-27T18:05:51.831Z,76.60
2023-04-27T18:08:21.248Z,77.10
2023-04-27T18:10:48.090Z,77.20
2023-04-27T18:13:18.477Z,79.00
2023-04-27T18:15:45.166Z,79.60
2023-04-27T18:18:19.890Z,78.50
2023-04-27T18:20:47.690Z,79.10
2023-04-27T18:23:33.755Z,79.40
2023-04-27T18:26:13.214Z,79.60
2023-04-27T18:28:41.781Z,80.20
2023-04-27T18:31:18.402Z,80.60
2023-04-27T18:33:45.873Z,80.20
2023-04-27T18:36:12.968Z,79.90
2023-04-27T18:38:39.873Z,79.90
2023-04-27T18:41:07.995Z,80.40
2023-04-27T18:43:36.688Z,81.10
2023-04-27T18:46:04.587Z,81.40
2023-04-27T18:48:32.268Z,82.20
2023-04-27T18:50:59.157Z,83.00
2023-04-27T18:53:27.261Z,83.80
2023-04-27T18:55:54.138Z,83.60
2023-04-27T18:58:22.268Z,84.20
2023-04-27T19:00:49.169Z,84.20
2023-04-27T19:03:16.596Z,83.80
2023-04-27T19:05:43.943Z,83.60
2023-04-27T19:08:11.285Z,83.70
2023-04-27T19:10:41.112Z,85.00
2023-04-27T19:13:08.076Z,85.80
2023-04-27T19:15:34.842Z,86.20
2023-04-27T19:18:09.313Z,86.20
2023-04-27T19:20:37.579Z,86.10
2023-04-27T19:23:05.186Z,87.30
2023-04-27T19:25:34.569Z,86.90
2023-04-27T19:28:01.371Z,87.10
2023-04-27T19:30:28.222Z,87.10
2023-04-27T19:32:55.123Z,87.70
2023-04-27T19:35:23.922Z,87.90
2023-04-27T19:37:51.220Z,87.80
2023-04-27T19:40:18.376Z,88.30
2023-04-27T19:42:45.497Z,87.90
2023-04-27T19:45:12.557Z,87.80
2023-04-27T19:47:39.584Z,89.30
2023-04-27T19:50:07.449Z,90.00
2023-04-27T19:52:34.574Z,89.30
2023-04-27T19:55:01.499Z,88.90
2023-04-27T19:57:28.474Z,88.70
2023-04-27T19:59:55.414Z,89.00
2023-04-27T20:02:22.788Z,89.90
2023-04-27T20:04:50.113Z,90.10
2023-04-27T20:07:17.166Z,90.20
2023-04-27T20:09:43.965Z,90.30
2023-04-27T20:12:23.694Z,90.50
2023-04-27T20:14:57.766Z,90.60
2023-04-27T20:17:27.632Z,90.90
2023-04-27T20:20:02.496Z,91.00
2023-04-27T20:22:29.363Z,91.10
2023-04-27T20:24:59.343Z,91.30
2023-04-27T20:27:26.285Z,91.20
2023-04-27T20:29:53.230Z,91.00
2023-04-27T20:32:20.144Z,91.00
2023-04-27T20:34:47.082Z,91.30
2023-04-27T20:37:13.814Z,91.30
2023-04-27T20:39:41.552Z,91.60
2023-04-27T20:42:18.487Z,91.60
2023-04-27T20:44:48.560Z,91.80
2023-04-27T20:47:15.551Z,92.00
2023-04-27T20:49:42.525Z,92.00
2023-04-27T20:52:09.297Z,92.00
2023-04-27T20:54:39.698Z,91.90
2023-04-27T20:57:11.016Z,92.10
2023-04-27T20:59:37.781Z,92.10
2023-04-27T21:02:04.594Z,92.40
2023-04-27T21:04:33.341Z,92.90
2023-04-27T21:07:10.897Z,92.50
2023-04-27T21:09:38.957Z,92.40
2023-04-27T21:12:06.615Z,92.70
2023-04-27T21:14:34.556Z,92.90
2023-04-27T21:17:01.536Z,92.90
2023-04-27T21:19:28.477Z,92.80
2023-04-27T21:21:55.493Z,93.00
2023-04-27T21:24:22.502Z,93.10
2023-04-27T21:26:49.645Z,93.30
2023-04-27T21:29:16.477Z,93.30
2023-04-27T21:31:44.534Z,93.20
2023-04-27T21:34:11.738Z,93.20
2023-04-27T21:36:38.544Z,93.20
2023-04-27T21:39:06.411Z,93.30
2023-04-27T21:41:34.774Z,93.40
2023-04-27T21:44:01.600Z,93.60
2023-04-27T21:46:28.391Z,93.60
2023-04-27T21:48:55.313Z,93.70
2023-04-27T21:51:22.449Z,93.70
2023-04-27T21:53:49.232Z,93.40
2023-04-27T21:56:16.207Z,93.80
2023-04-27T21:58:43.060Z,93.80
2023-04-27T22:01:11.221Z,94.00
2023-04-27T22:03:38.316Z,94.00
2023-04-27T22:06:06.339Z,94.10
2023-04-27T22:08:33.251Z,93.90
2023-04-27T22:11:00.192Z,93.90
2023-04-27T22:13:27.121Z,94.10
2023-04-27T22:15:53.930Z,94.00
2023-04-27T22:18:20.773Z,94.10
2023-04-27T22:20:47.529Z,94.20
2023-04-27T22:23:14.413Z,94.10
2023-04-27T22:25:43.085Z,93.80
2023-04-27T22:28:10.855Z,93.80
2023-04-27T22:30:39.125Z,94.00
2023-04-27T22:33:06.358Z,93.90
2023-04-27T22:35:34.122Z,94.00
2023-04-27T22:38:01.042Z,94.10
2023-04-27T22:40:27.968Z,94.10
2023-04-27T22:42:55.482Z,94.20
2023-04-27T22:45:23.224Z,94.30
2023-04-27T22:47:50.359Z,94.30
2023-04-27T22:50:17.256Z,94.30
2023-04-27T22:52:44.356Z,94.40
2023-04-27T22:55:12.286Z,94.40
2023-04-27T22:57:39.487Z,94.50
2023-04-27T23:00:09.267Z,94.60
2023-04-27T23:02:36.245Z,94.60
2023-04-27T23:05:03.913Z,94.60
2023-04-27T23:07:30.694Z,94.80
2023-04-27T23:09:57.496Z,94.80
2023-04-27T23:12:26.696Z,94.80
2023-04-27T23:14:53.555Z,94.80
2023-04-27T23:17:22.773Z,94.60
2023-04-27T23:19:49.849Z,94.70
2023-04-27T23:22:16.781Z,95.00
2023-04-27T23:24:43.539Z,95.00
2023-04-27T23:27:10.283Z,95.00
2023-04-27T23:29:37.115Z,95.40
2023-04-27T23:32:04.593Z,95.40
2023-04-27T23:34:34.181Z,95.60
2023-04-27T23:37:01.128Z,95.40
2023-04-27T23:39:28.576Z,95.20
2023-04-27T23:41:55.357Z,95.20
2023-04-27T23:44:22.399Z,95.40
2023-04-27T23:46:49.215Z,95.60
2023-04-27T23:49:16.073Z,95.80
2023-04-27T23:51:42.923Z,96.20
2023-04-27T23:54:09.893Z,96.20
2023-04-27T23:56:36.811Z,96.20
2023-04-27T23:59:03.531Z,95.70
